Time;durP1;ratioP1;P1;durP2;ratioP2;P2;SDS_P1;SDS_P2;PMS_P1;PMS_P2;Temp;Humidity;BMP_temperature;BMP_pressure;BME280_temperature;BME280_humidity;BME280_pressure;Samples;Min_cycle;Max_cycle;Signal;HPM_P1;HPM_P2
2023/03/31 00:02:22;;;;;;;20.90;5.70;;;;;;;;;;5053518;28;20041;-82
2023/03/31 00:04:52;;;;;;;11.05;4.47;;;;;;;;;;5036352;28;20049;-79
2023/03/31 00:07:23;;;;;;;7.80;4.07;;;;;;;;;;5036348;28;20080;-78
2023/03/31 00:09:54;;;;;;;5.72;3.67;;;;;;;;;;5036125;28;20055;-78
2023/03/31 00:12:41;;;;;;;6.30;3.72;;;;;;;;;;5039426;28;20427;-79
2023/03/31 00:15:08;;;;;;;16.92;5.40;;;;;;;;;;5036217;28;20139;-79
2023/03/31 00:17:35;;;;;;;12.88;4.80;;;;;;;;;;5053847;28;20057;-79
2023/03/31 00:20:04;;;;;;;10.85;4.90;;;;;;;;;;5053335;28;20048;-80
2023/03/31 00:22:31;;;;;;;12.05;5.20;;;;;;;;;;5053760;28;20049;-81
2023/03/31 00:24:59;;;;;;;8.85;4.15;;;;;;;;;;5035760;28;20504;-81
2023/03/31 00:27:27;;;;;;;11.90;5.57;;;;;;;;;;5036061;28;20041;-80
2023/03/31 00:29:54;;;;;;;17.58;6.13;;;;;;;;;;5035687;28;20076;-81
2023/03/31 00:32:21;;;;;;;11.00;5.05;;;;;;;;;;5035770;28;20055;-80
2023/03/31 00:34:49;;;;;;;10.82;5.18;;;;;;;;;;5035775;28;20099;-80
2023/03/31 00:37:16;;;;;;;9.23;4.72;;;;;;;;;;5053203;28;20057;-78
2023/03/31 00:39:43;;;;;;;7.75;4.60;;;;;;;;;;5035604;28;20055;-81
2023/03/31 00:42:14;;;;;;;14.65;5.22;;;;;;;;;;5035529;28;20136;-80
2023/03/31 00:45:00;;;;;;;9.68;5.38;;;;;;;;;;5035580;28;20130;-81
2023/03/31 00:47:29;;;;;;;12.10;4.88;;;;;;;;;;5053045;28;20052;-81
2023/03/31 00:49:57;;;;;;;23.95;6.43;;;;;;;;;;5053275;28;20048;-81
2023/03/31 00:52:27;;;;;;;8.88;5.00;;;;;;;;;;5035690;28;20135;-80
2023/03/31 00:54:56;;;;;;;9.07;4.50;;;;;;;;;;5053130;28;20149;-81
2023/03/31 00:57:27;;;;;;;9.05;4.95;;;;;;;;;;5035298;28;20140;-80
2023/03/31 00:59:58;;;;;;;6.82;5.15;;;;;;;;;;5052749;28;20053;-81
2023/03/31 01:02:25;;;;;;;14.63;5.50;;;;;;;;;;5035191;28;20051;-81
2023/03/31 01:04:56;;;;;;;10.95;5.45;;;;;;;;;;5035258;28;20056;-81
2023/03/31 01:07:32;;;;;;;9.20;5.78;;;;;;;;;;5036087;28;20466;-81
2023/03/31 01:10:01;;;;;;;8.10;5.72;;;;;;;;;;5054592;28;20049;-81
2023/03/31 01:12:28;;;;;;;16.73;5.65;;;;;;;;;;5036011;28;20109;-81
2023/03/31 01:14:55;;;;;;;12.35;5.93;;;;;;;;;;5035347;28;20049;-81
2023/03/31 01:17:23;;;;;;;16.65;7.45;;;;;;;;;;5036118;28;20057;-81
2023/03/31 01:19:56;;;;;;;20.05;7.00;;;;;;;;;;5053909;28;20087;-81
2023/03/31 01:22:33;;;;;;;11.20;5.50;;;;;;;;;;5053750;28;20072;-81
2023/03/31 01:25:22;;;;;;;13.57;5.97;;;;;;;;;;5053841;28;20083;-81
2023/03/31 01:28:08;;;;;;;17.50;5.43;;;;;;;;;;5053828;28;20570;-81
2023/03/31 01:30:56;;;;;;;9.10;6.00;;;;;;;;;;5035798;28;20052;-80
2023/03/31 01:33:23;;;;;;;9.98;5.70;;;;;;;;;;5035781;28;20049;-81
2023/03/31 01:36:01;;;;;;;10.63;5.63;;;;;;;;;;5053837;28;20562;-81
2023/03/31 01:38:40;;;;;;;12.63;6.00;;;;;;;;;;5036036;28;20049;-82
2023/03/31 01:41:10;;;;;;;9.73;6.28;;;;;;;;;;5052774;28;20048;-81
2023/03/31 01:43:45;;;;;;;13.00;6.32;;;;;;;;;;5053677;28;20076;-80
2023/03/31 01:46:16;;;;;;;14.80;5.97;;;;;;;;;;5035338;28;20052;-81
2023/03/31 01:49:02;;;;;;;18.85;7.82;;;;;;;;;;5035587;28;20045;-81
2023/03/31 01:51:35;;;;;;;15.52;7.22;;;;;;;;;;5052909;28;20084;-82
2023/03/31 01:54:06;;;;;;;15.02;6.53;;;;;;;;;;5035021;28;20091;-81
2023/03/31 01:56:39;;;;;;;11.20;6.78;;;;;;;;;;5052282;28;20503;-80
2023/03/31 01:59:09;;;;;;;14.90;7.10;;;;;;;;;;5052595;28;20129;-81
2023/03/31 02:01:39;;;;;;;13.32;6.30;;;;;;;;;;5034919;28;20053;-80
2023/03/31 02:04:22;;;;;;;25.25;6.72;;;;;;;;;;5052594;28;20041;-80
2023/03/31 02:06:55;;;;;;;15.68;6.40;;;;;;;;;;5034805;28;20132;-80
2023/03/31 02:09:24;;;;;;;19.88;5.63;;;;;;;;;;5034593;28;20056;-81
2023/03/31 02:11:52;;;;;;;13.63;5.38;;;;;;;;;;5052271;28;20098;-81
2023/03/31 02:14:21;;;;;;;18.33;5.18;;;;;;;;;;5034609;28;20053;-80
2023/03/31 02:16:51;;;;;;;18.40;5.65;;;;;;;;;;5034348;28;20049;-79
2023/03/31 02:19:19;;;;;;;14.20;4.90;;;;;;;;;;5051935;28;20060;-80
2023/03/31 02:21:48;;;;;;;13.75;4.95;;;;;;;;;;5053684;28;20500;-81
2023/03/31 02:24:17;;;;;;;20.10;5.97;;;;;;;;;;5038424;28;20056;-80
2023/03/31 02:27:07;;;;;;;11.25;4.63;;;;;;;;;;5039355;28;20059;-81
2023/03/31 02:29:34;;;;;;;12.45;6.50;;;;;;;;;;5028931;28;20057;-81
2023/03/31 02:32:20;;;;;;;22.88;8.45;;;;;;;;;;5057815;28;20064;-80
2023/03/31 02:34:47;;;;;;;24.98;10.70;;;;;;;;;;5058162;28;20128;-81
2023/03/31 02:37:14;;;;;;;29.80;12.15;;;;;;;;;;5039510;28;20077;-80
2023/03/31 02:39:44;;;;;;;17.50;8.55;;;;;;;;;;5056388;28;20128;-80
2023/03/31 02:42:11;;;;;;;20.63;9.00;;;;;;;;;;5056021;28;20132;-80
2023/03/31 02:44:39;;;;;;;22.50;8.63;;;;;;;;;;5038802;28;20511;-80
2023/03/31 02:47:08;;;;;;;17.95;7.95;;;;;;;;;;5038992;28;20045;-79
2023/03/31 02:49:36;;;;;;;12.48;5.47;;;;;;;;;;5040161;28;20052;-80
2023/03/31 02:52:19;;;;;;;15.00;5.88;;;;;;;;;;5040150;28;20132;-81
2023/03/31 02:54:55;;;;;;;9.48;5.07;;;;;;;;;;5058232;28;20121;-81
2023/03/31 02:57:32;;;;;;;14.05;4.75;;;;;;;;;;5039885;28;20049;-80
2023/03/31 03:00:07;;;;;;;11.73;4.40;;;;;;;;;;5039207;28;20053;-81
2023/03/31 03:02:43;;;;;;;7.57;4.03;;;;;;;;;;5039012;28;20534;-78
2023/03/31 03:05:10;;;;;;;11.98;3.85;;;;;;;;;;5056896;28;20079;-79
2023/03/31 03:07:44;;;;;;;15.43;4.07;;;;;;;;;;5038818;28;20044;-80
2023/03/31 03:10:28;;;;;;;9.70;4.28;;;;;;;;;;5038400;28;20091;-80
2023/03/31 03:12:55;;;;;;;;;;;;;;;;;;5056528;28;20080;-80
2023/03/31 03:15:25;;;;;;;14.82;3.55;;;;;;;;;;5038150;28;19931;-79
2023/03/31 03:17:53;;;;;;;7.03;3.38;;;;;;;;;;5056347;28;20059;-81
2023/03/31 03:20:20;;;;;;;18.38;4.40;;;;;;;;;;5037323;28;20051;-79
2023/03/31 03:22:48;;;;;;;7.13;3.65;;;;;;;;;;5056011;28;20044;-80
2023/03/31 03:25:19;;;;;;;10.18;4.40;;;;;;;;;;5037919;28;20466;-79
2023/03/31 03:27:46;;;;;;;11.52;5.05;;;;;;;;;;5037803;28;20056;-80
2023/03/31 03:30:14;;;;;;;24.92;9.38;;;;;;;;;;5055421;28;20053;-79
2023/03/31 03:32:41;;;;;;;17.33;6.93;;;;;;;;;;5055224;28;20059;-79
2023/03/31 03:35:09;;;;;;;14.85;5.63;;;;;;;;;;5054762;28;20436;-80
2023/03/31 03:37:37;;;;;;;14.32;5.68;;;;;;;;;;5035946;28;20053;-80
2023/03/31 03:40:05;;;;;;;20.75;5.03;;;;;;;;;;5054732;28;20045;-79
2023/03/31 03:42:32;;;;;;;8.02;3.60;;;;;;;;;;5037067;28;20133;-80
2023/03/31 03:45:00;;;;;;;12.93;4.45;;;;;;;;;;5037298;28;20442;-79
2023/03/31 03:47:27;;;;;;;12.25;4.13;;;;;;;;;;5054450;28;20167;-79
2023/03/31 03:49:55;;;;;;;20.10;7.00;;;;;;;;;;5054593;28;20049;-80
2023/03/31 03:52:22;;;;;;;22.02;7.47;;;;;;;;;;5054551;28;20083;-79
2023/03/31 03:54:49;;;;;;;21.48;5.75;;;;;;;;;;5036676;28;20579;-80
2023/03/31 03:57:16;;;;;;;15.23;5.63;;;;;;;;;;5042926;28;20060;-81
2023/03/31 03:59:43;;;;;;;9.07;4.60;;;;;;;;;;5059256;28;20061;-81
2023/03/31 04:02:11;;;;;;;16.88;7.60;;;;;;;;;;5042067;28;20041;-80
2023/03/31 04:04:38;;;;;;;15.13;5.05;;;;;;;;;;5040694;28;20054;-80
2023/03/31 04:07:05;;;;;;;15.07;5.40;;;;;;;;;;5041449;28;20103;-80
2023/03/31 04:09:33;;;;;;;16.55;5.35;;;;;;;;;;5041257;28;20045;-81
2023/03/31 04:12:00;;;;;;;15.38;4.70;;;;;;;;;;5059257;28;20053;-80
2023/03/31 04:14:27;;;;;;;11.52;4.68;;;;;;;;;;5055626;28;20397;-80
2023/03/31 04:16:55;;;;;;;10.10;3.40;;;;;;;;;;5054436;28;20112;-78
2023/03/31 04:19:24;;;;;;;8.73;3.75;;;;;;;;;;5054162;28;20109;-79
2023/03/31 04:21:57;;;;;;;11.38;3.38;;;;;;;;;;5036768;28;20416;-79
2023/03/31 04:24:29;;;;;;;9.88;3.35;;;;;;;;;;5053941;28;20056;-79
2023/03/31 04:26:57;;;;;;;29.98;5.72;;;;;;;;;;5036768;28;20107;-79
2023/03/31 04:29:25;;;;;;;45.80;6.60;;;;;;;;;;5037242;28;20189;-80
2023/03/31 04:31:57;;;;;;;60.33;6.30;;;;;;;;;;5037517;28;20053;-79
2023/03/31 04:34:33;;;;;;;28.75;4.90;;;;;;;;;;5055463;28;20060;-81
2023/03/31 04:37:01;;;;;;;23.88;4.53;;;;;;;;;;5055102;28;20108;-79
2023/03/31 04:39:32;;;;;;;10.43;3.30;;;;;;;;;;5054200;28;20064;-79
2023/03/31 04:42:00;;;;;;;21.20;3.97;;;;;;;;;;5053727;28;20080;-79
2023/03/31 04:44:27;;;;;;;14.27;5.88;;;;;;;;;;5037096;28;20045;-80
2023/03/31 04:46:55;;;;;;;12.32;6.35;;;;;;;;;;5055833;28;20049;-80
2023/03/31 04:49:22;;;;;;;16.38;6.28;;;;;;;;;;5036942;28;20480;-80
2023/03/31 04:51:49;;;;;;;14.55;6.60;;;;;;;;;;5055046;28;20053;-81
2023/03/31 04:54:16;;;;;;;14.13;6.60;;;;;;;;;;5054948;28;20498;-80
2023/03/31 04:56:44;;;;;;;11.55;6.22;;;;;;;;;;5037144;28;20129;-81
2023/03/31 04:59:11;;;;;;;20.58;7.03;;;;;;;;;;5037139;28;20071;-80
2023/03/31 05:01:38;;;;;;;12.93;6.28;;;;;;;;;;5055368;28;20092;-80
2023/03/31 05:04:05;;;;;;;17.55;7.00;;;;;;;;;;5055065;28;20092;-80
2023/03/31 05:06:33;;;;;;;10.45;5.07;;;;;;;;;;5055308;28;20045;-80
2023/03/31 05:09:00;;;;;;;12.00;6.25;;;;;;;;;;5055168;28;20059;-81
2023/03/31 05:11:27;;;;;;;13.52;4.35;;;;;;;;;;5056227;28;20135;-80
2023/03/31 05:13:55;;;;;;;15.40;6.18;;;;;;;;;;5038308;28;20053;-81
2023/03/31 05:16:22;;;;;;;14.18;5.55;;;;;;;;;;5056485;28;20103;-80
2023/03/31 05:18:49;;;;;;;28.83;8.18;;;;;;;;;;5056781;28;20049;-81
2023/03/31 05:21:18;;;;;;;16.95;7.55;;;;;;;;;;5038183;28;20101;-81
2023/03/31 05:23:45;;;;;;;30.38;8.57;;;;;;;;;;5037886;28;20104;-80
2023/03/31 05:26:12;;;;;;;28.13;7.32;;;;;;;;;;5055666;28;20044;-80
2023/03/31 05:28:40;;;;;;;38.72;7.55;;;;;;;;;;5055648;28;20489;-81
2023/03/31 05:31:08;;;;;;;32.10;9.07;;;;;;;;;;5057316;28;20053;-81
2023/03/31 05:33:39;;;;;;;18.35;6.78;;;;;;;;;;5039576;28;20049;-82
2023/03/31 05:36:07;;;;;;;26.40;6.95;;;;;;;;;;5056215;28;20049;-81
2023/03/31 05:38:35;;;;;;;49.92;9.95;;;;;;;;;;5057055;28;20045;-81
2023/03/31 05:41:02;;;;;;;56.67;10.25;;;;;;;;;;5038223;28;20051;-81
2023/03/31 05:43:30;;;;;;;48.45;9.75;;;;;;;;;;5055814;28;20088;-79
2023/03/31 05:45:57;;;;;;;54.88;10.60;;;;;;;;;;5037182;28;20063;-79
2023/03/31 05:48:24;;;;;;;32.42;8.23;;;;;;;;;;5055155;28;20129;-79
2023/03/31 05:50:51;;;;;;;22.45;8.13;;;;;;;;;;5037614;28;20070;-80
2023/03/31 05:53:19;;;;;;;43.70;11.27;;;;;;;;;;5055147;28;20063;-78
2023/03/31 05:55:46;;;;;;;28.42;7.72;;;;;;;;;;5055205;28;20048;-79
2023/03/31 05:58:13;;;;;;;22.45;7.78;;;;;;;;;;5036742;28;20053;-79
2023/03/31 06:00:40;;;;;;;26.55;8.13;;;;;;;;;;5036670;28;20059;-80
2023/03/31 06:03:07;;;;;;;18.27;6.65;;;;;;;;;;5041044;28;20076;-79
2023/03/31 06:05:35;;;;;;;34.05;8.88;;;;;;;;;;5040889;28;20053;-79
2023/03/31 06:08:02;;;;;;;24.00;7.93;;;;;;;;;;5040614;28;20452;-79
2023/03/31 06:10:29;;;;;;;21.83;9.30;;;;;;;;;;5058115;28;20091;-79
2023/03/31 06:12:57;;;;;;;20.70;7.75;;;;;;;;;;5040837;28;20433;-79
2023/03/31 06:15:24;;;;;;;28.70;10.40;;;;;;;;;;5040911;28;20412;-80
2023/03/31 06:17:51;;;;;;;16.45;7.30;;;;;;;;;;5058332;28;20135;-78
2023/03/31 06:20:18;;;;;;;33.38;7.30;;;;;;;;;;5039321;28;20053;-78
2023/03/31 06:22:54;;;;;;;24.85;7.35;;;;;;;;;;5057716;28;20045;-79
2023/03/31 06:25:21;;;;;;;14.40;7.32;;;;;;;;;;5039849;28;20234;-79
2023/03/31 06:27:49;;;;;;;18.50;6.60;;;;;;;;;;5039359;28;20507;-79
2023/03/31 06:30:16;;;;;;;9.60;5.05;;;;;;;;;;5039880;28;20049;-79
2023/03/31 06:32:43;;;;;;;9.90;3.20;;;;;;;;;;5057823;28;20431;-79
2023/03/31 06:35:10;;;;;;;11.80;3.13;;;;;;;;;;5060443;28;20115;-80
2023/03/31 06:37:37;;;;;;;6.35;1.90;;;;;;;;;;5059420;28;20061;-79
2023/03/31 06:40:05;;;;;;;8.55;1.80;;;;;;;;;;5058414;28;20060;-80
2023/03/31 06:42:33;;;;;;;7.68;2.22;;;;;;;;;;5059487;28;20118;-80
2023/03/31 06:45:00;;;;;;;4.95;1.92;;;;;;;;;;5059271;28;20159;-80
2023/03/31 06:47:28;;;;;;;6.95;2.30;;;;;;;;;;5041613;28;20053;-80
2023/03/31 06:49:55;;;;;;;6.30;1.90;;;;;;;;;;5041524;28;20051;-79
2023/03/31 06:52:22;;;;;;;6.90;1.75;;;;;;;;;;5040254;28;20175;-80
2023/03/31 06:54:49;;;;;;;5.40;1.83;;;;;;;;;;5041328;28;20131;-79
2023/03/31 06:57:17;;;;;;;5.93;1.60;;;;;;;;;;5040552;28;20098;-80
2023/03/31 06:59:44;;;;;;;6.32;2.08;;;;;;;;;;5040379;28;20049;-80
2023/03/31 07:02:11;;;;;;;8.43;2.22;;;;;;;;;;5057152;28;20045;-80
2023/03/31 07:04:38;;;;;;;7.53;1.60;;;;;;;;;;5040351;28;20057;-79
2023/03/31 07:07:06;;;;;;;10.18;2.08;;;;;;;;;;5041304;28;20088;-79
2023/03/31 07:09:33;;;;;;;6.45;2.28;;;;;;;;;;5059386;28;20124;-79
2023/03/31 07:12:00;;;;;;;4.80;1.63;;;;;;;;;;5041393;28;20092;-80
2023/03/31 07:14:27;;;;;;;4.63;1.25;;;;;;;;;;5058864;28;20534;-80
2023/03/31 07:16:54;;;;;;;6.55;1.60;;;;;;;;;;5040647;28;20057;-79
2023/03/31 07:19:22;;;;;;;7.88;1.75;;;;;;;;;;5058297;28;20454;-79
2023/03/31 07:21:50;;;;;;;6.20;1.75;;;;;;;;;;5040094;28;20132;-79
2023/03/31 07:24:17;;;;;;;8.98;1.88;;;;;;;;;;5040149;28;20509;-80
2023/03/31 07:26:44;;;;;;;5.85;1.55;;;;;;;;;;5039893;28;20045;-79
2023/03/31 07:29:11;;;;;;;6.95;1.90;;;;;;;;;;5056896;28;20431;-79
2023/03/31 07:31:39;;;;;;;6.50;3.22;;;;;;;;;;5057700;28;20511;-78
2023/03/31 07:34:06;;;;;;;5.13;1.65;;;;;;;;;;5038901;28;20045;-79
2023/03/31 07:36:33;;;;;;;6.32;1.83;;;;;;;;;;5038522;28;20049;-79
2023/03/31 07:39:00;;;;;;;4.82;1.75;;;;;;;;;;5039054;28;20083;-79
2023/03/31 07:41:28;;;;;;;3.53;1.20;;;;;;;;;;5057397;28;20040;-79
2023/03/31 07:43:55;;;;;;;7.93;1.63;;;;;;;;;;5057747;28;20052;-79
2023/03/31 07:46:23;;;;;;;5.00;1.85;;;;;;;;;;5039801;28;20139;-81
2023/03/31 07:48:51;;;;;;;5.35;1.23;;;;;;;;;;5040457;28;20048;-79
2023/03/31 07:51:20;;;;;;;5.90;2.10;;;;;;;;;;5039382;28;20104;-79
2023/03/31 07:53:48;;;;;;;5.10;1.48;;;;;;;;;;5056564;28;20049;-79
2023/03/31 07:56:16;;;;;;;4.10;1.10;;;;;;;;;;5040681;28;20053;-78
2023/03/31 07:58:44;;;;;;;1.80;0.85;;;;;;;;;;5042677;28;20136;-79
2023/03/31 08:01:15;;;;;;;5.55;1.00;;;;;;;;;;5073305;23;20045;-92
2023/03/31 08:03:43;;;;;;;3.35;0.80;;;;;;;;;;5076226;28;20052;-91
2023/03/31 08:06:11;;;;;;;3.47;0.93;;;;;;;;;;5057941;28;20051;-89
2023/03/31 08:08:41;;;;;;;3.28;2.30;;;;;;;;;;5064583;28;20072;-92
2023/03/31 08:11:12;;;;;;;;;;;;;;;;;;5080701;28;20397;-91
2023/03/31 08:13:40;;;;;;;3.40;1.10;;;;;;;;;;5059319;28;20364;-91
2023/03/31 08:16:07;;;;;;;3.22;1.25;;;;;;;;;;5057131;28;20052;-91
2023/03/31 08:18:35;;;;;;;1.92;0.90;;;;;;;;;;5057354;28;20503;-92
2023/03/31 08:21:02;;;;;;;2.72;0.70;;;;;;;;;;5057527;28;20049;-90
2023/03/31 08:23:29;;;;;;;1.30;0.90;;;;;;;;;;5074600;28;20052;-91
2023/03/31 08:26:07;;;;;;;2.55;0.82;;;;;;;;;;5057267;28;20040;-91
2023/03/31 08:28:34;;;;;;;2.80;0.80;;;;;;;;;;5057179;28;20052;-91
2023/03/31 08:31:06;;;;;;;2.63;1.20;;;;;;;;;;5074263;28;20048;-91
2023/03/31 08:33:34;;;;;;;1.13;0.90;;;;;;;;;;5057114;28;20056;-90
2023/03/31 08:36:02;;;;;;;1.38;0.90;;;;;;;;;;5057077;28;20045;-91
2023/03/31 08:38:30;;;;;;;1.23;0.80;;;;;;;;;;5074953;28;20055;-91
2023/03/31 08:41:01;;;;;;;1.55;0.98;;;;;;;;;;5056784;28;20040;-92
2023/03/31 08:43:34;;;;;;;2.90;0.80;;;;;;;;;;5057049;28;20064;-91
2023/03/31 08:46:02;;;;;;;4.13;1.00;;;;;;;;;;5057048;28;20056;-91
2023/03/31 08:48:33;;;;;;;3.92;0.82;;;;;;;;;;5057042;28;20404;-91
2023/03/31 08:51:04;;;;;;;5.05;1.70;;;;;;;;;;5057039;28;20124;-91
2023/03/31 08:53:39;;;;;;;1.35;0.73;;;;;;;;;;5057139;28;20127;-91
2023/03/31 08:56:06;;;;;;;;;;;;;;;;;;5056772;28;20059;-91
2023/03/31 08:58:39;;;;;;;1.88;0.90;;;;;;;;;;5074417;28;19928;-92
2023/03/31 09:01:25;;;;;;;2.35;0.80;;;;;;;;;;5056599;28;20064;-91
2023/03/31 09:04:11;;;;;;;1.80;0.52;;;;;;;;;;5056628;28;20045;-93
2023/03/31 09:06:45;;;;;;;0.63;0.63;;;;;;;;;;5056971;28;20103;-90
2023/03/31 09:09:27;;;;;;;0.95;0.57;;;;;;;;;;5056826;28;20087;-92
2023/03/31 09:11:56;;;;;;;0.93;0.60;;;;;;;;;;5056761;28;20084;-91
2023/03/31 09:14:30;;;;;;;1.63;0.80;;;;;;;;;;5073959;28;20061;-92
2023/03/31 09:17:16;;;;;;;1.85;0.80;;;;;;;;;;5056641;28;20050;-91
2023/03/31 09:19:53;;;;;;;2.10;1.02;;;;;;;;;;5057512;28;20058;-91
2023/03/31 09:22:26;;;;;;;2.58;0.80;;;;;;;;;;5057460;28;20063;-93
2023/03/31 09:25:03;;;;;;;2.78;1.05;;;;;;;;;;5057259;28;20087;-92
2023/03/31 09:27:33;;;;;;;1.48;0.90;;;;;;;;;;5083018;28;20108;-94
2023/03/31 09:30:14;;;;;;;3.03;0.68;;;;;;;;;;5063298;28;20445;-95
2023/03/31 09:32:42;;;;;;;2.75;1.10;;;;;;;;;;5123787;23;20049;-83
2023/03/31 09:35:25;;;;;;;3.15;0.90;;;;;;;;;;5066011;28;20071;-85
2023/03/31 09:37:53;;;;;;;0.63;0.63;;;;;;;;;;5066674;28;20057;-85
2023/03/31 09:40:22;;;;;;;3.00;0.70;;;;;;;;;;5049040;28;20045;-86
2023/03/31 09:43:08;;;;;;;3.53;1.05;;;;;;;;;;5046708;28;20045;-85
2023/03/31 09:45:35;;;;;;;2.05;1.20;;;;;;;;;;5043227;28;20088;-84
2023/03/31 09:48:10;;;;;;;12.40;2.53;;;;;;;;;;5035918;28;20055;-83
2023/03/31 09:50:41;;;;;;;3.53;1.35;;;;;;;;;;5035586;28;20107;-84
2023/03/31 09:53:14;;;;;;;3.08;1.50;;;;;;;;;;5035806;28;20052;-84
2023/03/31 09:55:47;;;;;;;4.10;1.15;;;;;;;;;;5037290;28;20055;-83
2023/03/31 09:58:15;;;;;;;2.70;0.90;;;;;;;;;;5057377;28;20088;-83
2023/03/31 10:00:44;;;;;;;1.48;1.00;;;;;;;;;;5041371;28;20052;-85
2023/03/31 10:03:12;;;;;;;4.07;1.30;;;;;;;;;;5041019;28;20495;-84
2023/03/31 10:05:53;;;;;;;1.63;1.08;;;;;;;;;;5058906;28;20076;-83
2023/03/31 10:08:31;;;;;;;1.10;1.02;;;;;;;;;;5040376;28;20132;-83
2023/03/31 10:11:01;;;;;;;1.67;1.20;;;;;;;;;;5040100;28;20051;-86
2023/03/31 10:13:30;;;;;;;3.00;1.02;;;;;;;;;;5043031;28;20053;-84
2023/03/31 10:16:07;;;;;;;1.77;1.50;;;;;;;;;;5045716;28;20049;-84
2023/03/31 10:18:36;;;;;;;3.58;1.27;;;;;;;;;;5059714;28;20435;-83
2023/03/31 10:21:05;;;;;;;2.53;1.25;;;;;;;;;;5042200;28;20057;-84
2023/03/31 10:23:34;;;;;;;3.78;1.38;;;;;;;;;;5043221;28;20518;-85
2023/03/31 10:26:02;;;;;;;3.25;1.55;;;;;;;;;;5042687;28;20045;-83
2023/03/31 10:28:31;;;;;;;2.83;1.50;;;;;;;;;;5042647;28;20052;-85
2023/03/31 10:31:03;;;;;;;4.13;1.92;;;;;;;;;;5060865;28;20073;-84
2023/03/31 10:33:33;;;;;;;2.60;1.88;;;;;;;;;;5061512;28;20072;-84
2023/03/31 10:36:09;;;;;;;4.05;1.95;;;;;;;;;;5043300;28;20049;-83
2023/03/31 10:38:43;;;;;;;2.80;1.55;;;;;;;;;;5061646;28;20064;-85
2023/03/31 10:41:11;;;;;;;2.28;1.55;;;;;;;;;;5041409;28;20057;-85
2023/03/31 10:43:42;;;;;;;2.22;1.50;;;;;;;;;;5041376;28;20052;-84
2023/03/31 10:46:11;;;;;;;1.42;1.33;;;;;;;;;;5040456;28;20104;-84
2023/03/31 10:48:40;;;;;;;2.33;1.98;;;;;;;;;;5043753;28;20090;-83
2023/03/31 10:51:18;;;;;;;3.80;1.83;;;;;;;;;;5042142;28;20129;-82
2023/03/31 10:53:46;;;;;;;1.83;1.55;;;;;;;;;;5043696;28;20076;-84
2023/03/31 10:56:18;;;;;;;1.75;1.60;;;;;;;;;;5043015;28;20098;-83
2023/03/31 10:58:54;;;;;;;2.40;1.70;;;;;;;;;;5041044;28;20517;-83
2023/03/31 11:01:37;;;;;;;3.03;1.65;;;;;;;;;;5047313;28;20561;-85
2023/03/31 11:04:08;;;;;;;2.80;1.17;;;;;;;;;;5044787;28;20049;-84
2023/03/31 11:06:51;;;;;;;3.13;1.30;;;;;;;;;;5063822;28;20499;-83
2023/03/31 11:09:34;;;;;;;0.68;0.68;;;;;;;;;;5046198;28;20055;-85
2023/03/31 11:12:12;;;;;;;4.60;1.00;;;;;;;;;;5045233;28;20051;-84
2023/03/31 11:14:40;;;;;;;3.00;1.00;;;;;;;;;;5044528;28;20599;-85
2023/03/31 11:17:22;;;;;;;3.20;0.98;;;;;;;;;;5044843;28;20104;-84
2023/03/31 11:20:06;;;;;;;2.78;0.70;;;;;;;;;;5042311;28;20049;-84
2023/03/31 11:22:40;;;;;;;2.50;0.80;;;;;;;;;;5040046;28;20071;-84
2023/03/31 11:25:12;;;;;;;1.65;0.60;;;;;;;;;;5039288;28;20419;-84
2023/03/31 11:27:58;;;;;;;3.08;1.10;;;;;;;;;;5056797;28;20049;-84
2023/03/31 11:30:30;;;;;;;2.97;0.80;;;;;;;;;;5038977;28;20045;-84
2023/03/31 11:33:16;;;;;;;1.70;1.00;;;;;;;;;;5051724;28;20049;-84
2023/03/31 11:36:07;;;;;;;1.48;0.90;;;;;;;;;;5059003;28;20538;-84
2023/03/31 11:38:43;;;;;;;1.50;0.98;;;;;;;;;;5059409;28;20064;-84
2023/03/31 11:41:13;;;;;;;3.88;0.93;;;;;;;;;;5058469;28;20083;-84
2023/03/31 11:43:45;;;;;;;3.25;0.82;;;;;;;;;;5059266;28;20044;-84
2023/03/31 11:46:14;;;;;;;1.92;1.30;;;;;;;;;;5058972;28;20047;-84
2023/03/31 11:48:44;;;;;;;1.08;0.90;;;;;;;;;;5066351;28;20070;-85
2023/03/31 11:51:16;;;;;;;2.28;1.13;;;;;;;;;;5072732;28;20040;-85
2023/03/31 11:53:44;;;;;;;1.48;1.17;;;;;;;;;;5069229;28;20053;-85
2023/03/31 11:56:12;;;;;;;2.42;0.77;;;;;;;;;;5064284;28;20044;-85
2023/03/31 11:58:44;;;;;;;5.88;1.33;;;;;;;;;;5061841;28;20060;-86
2023/03/31 12:01:18;;;;;;;1.48;0.85;;;;;;;;;;5062633;28;20060;-85
2023/03/31 12:03:54;;;;;;;2.47;0.77;;;;;;;;;;5062114;28;20135;-85
2023/03/31 12:06:23;;;;;;;3.30;1.30;;;;;;;;;;5062060;28;20101;-84
2023/03/31 12:09:07;;;;;;;3.78;1.20;;;;;;;;;;5063017;28;20041;-85
2023/03/31 12:11:43;;;;;;;2.80;0.85;;;;;;;;;;5062154;28;20048;-84
2023/03/31 12:14:23;;;;;;;1.75;1.10;;;;;;;;;;5063418;28;20514;-85
2023/03/31 12:17:10;;;;;;;3.05;1.30;;;;;;;;;;5079578;28;20151;-85
2023/03/31 12:19:44;;;;;;;3.67;1.00;;;;;;;;;;5062271;28;20140;-84
2023/03/31 12:22:15;;;;;;;2.30;1.15;;;;;;;;;;5061913;28;20044;-84
2023/03/31 12:24:42;;;;;;;3.58;0.98;;;;;;;;;;5062565;28;20041;-84
2023/03/31 12:27:18;;;;;;;2.78;0.88;;;;;;;;;;5061306;28;20044;-85
2023/03/31 12:29:48;;;;;;;3.20;1.02;;;;;;;;;;5061695;28;20098;-84
2023/03/31 12:32:17;;;;;;;5.45;1.15;;;;;;;;;;5057453;28;20148;-84
2023/03/31 12:34:48;;;;;;;1.75;0.95;;;;;;;;;;5040886;28;20059;-84
2023/03/31 12:37:34;;;;;;;2.83;1.10;;;;;;;;;;5041174;28;20059;-84
2023/03/31 12:40:17;;;;;;;1.70;1.05;;;;;;;;;;5040647;28;20053;-84
2023/03/31 12:42:55;;;;;;;1.15;0.57;;;;;;;;;;5057709;28;20048;-84
2023/03/31 12:45:30;;;;;;;0.95;0.75;;;;;;;;;;5041455;28;20069;-85
2023/03/31 12:48:20;;;;;;;1.20;0.63;;;;;;;;;;5039871;28;20094;-84
2023/03/31 12:51:02;;;;;;;1.10;0.52;;;;;;;;;;5062554;28;20055;-84
2023/03/31 12:53:33;;;;;;;2.95;0.75;;;;;;;;;;5062246;28;20048;-85
2023/03/31 12:56:00;;;;;;;1.98;0.60;;;;;;;;;;5060758;28;20423;-84
2023/03/31 12:58:32;;;;;;;3.40;0.52;;;;;;;;;;5058371;28;20048;-85
2023/03/31 13:01:09;;;;;;;1.20;0.60;;;;;;;;;;5059588;28;20080;-85
2023/03/31 13:03:40;;;;;;;1.73;0.63;;;;;;;;;;5064797;28;20040;-84
2023/03/31 13:06:10;;;;;;;2.90;0.73;;;;;;;;;;5080789;28;20056;-84
2023/03/31 13:08:57;;;;;;;2.03;0.60;;;;;;;;;;5063870;28;20048;-85
2023/03/31 13:11:30;;;;;;;2.13;0.57;;;;;;;;;;5063224;28;20102;-84
2023/03/31 13:13:58;;;;;;;1.85;0.47;;;;;;;;;;5062002;28;20049;-84
2023/03/31 13:16:45;;;;;;;2.28;0.70;;;;;;;;;;5064812;28;20423;-85
2023/03/31 13:19:26;;;;;;;3.33;0.80;;;;;;;;;;5060817;28;20071;-83
2023/03/31 13:21:55;;;;;;;2.80;0.77;;;;;;;;;;5066052;28;20108;-85
2023/03/31 13:24:22;;;;;;;2.17;0.55;;;;;;;;;;5066589;28;20063;-83
2023/03/31 13:26:51;;;;;;;3.35;0.70;;;;;;;;;;5094973;28;20124;-84
2023/03/31 13:29:26;;;;;;;1.85;0.93;;;;;;;;;;5076670;28;20066;-85
2023/03/31 13:32:02;;;;;;;2.05;0.68;;;;;;;;;;5064612;28;20080;-85
2023/03/31 13:34:29;;;;;;;2.75;0.63;;;;;;;;;;5063146;28;20060;-84
2023/03/31 13:37:13;;;;;;;6.30;1.05;;;;;;;;;;5063951;28;20480;-85
2023/03/31 13:40:07;;;;;;;1.85;0.52;;;;;;;;;;5062689;28;20051;-84
2023/03/31 13:42:35;;;;;;;;;;;;;;;;;;5063532;28;20048;-85
2023/03/31 13:45:06;;;;;;;4.15;1.08;;;;;;;;;;5063059;28;19921;-84
2023/03/31 13:47:45;;;;;;;4.53;0.90;;;;;;;;;;5063173;28;20051;-85
2023/03/31 13:50:18;;;;;;;4.47;1.20;;;;;;;;;;5062885;28;20044;-85
2023/03/31 13:53:02;;;;;;;2.47;0.63;;;;;;;;;;5061631;28;20703;-84
2023/03/31 13:55:35;;;;;;;1.25;0.70;;;;;;;;;;5063381;28;20519;-85
2023/03/31 13:58:16;;;;;;;3.25;1.02;;;;;;;;;;5079507;28;20503;-85
2023/03/31 14:01:13;;;;;;;5.90;0.88;;;;;;;;;;5069044;23;20063;-92
2023/03/31 14:04:10;;;;;;;3.95;0.90;;;;;;;;;;5058435;28;20053;-95
2023/03/31 14:06:39;;;;;;;2.85;0.77;;;;;;;;;;5042254;28;20064;-93
2023/03/31 14:09:11;;;;;;;5.10;1.00;;;;;;;;;;5057418;28;20409;-93
2023/03/31 14:11:38;;;;;;;4.22;1.00;;;;;;;;;;5062728;28;20408;-93
2023/03/31 14:14:10;;;;;;;6.80;1.08;;;;;;;;;;5077862;28;20055;-94
2023/03/31 14:16:40;;;;;;;4.47;1.27;;;;;;;;;;5057440;28;20669;-93
2023/03/31 14:19:18;;;;;;;4.53;1.00;;;;;;;;;;5059583;28;20059;-95
2023/03/31 14:21:52;;;;;;;4.60;1.48;;;;;;;;;;5079104;28;20076;-91
2023/03/31 14:24:25;;;;;;;8.68;1.10;;;;;;;;;;5067132;28;20056;-94
2023/03/31 14:27:10;;;;;;;10.95;1.30;;;;;;;;;;5063474;28;20424;-95
2023/03/31 14:29:47;;;;;;;6.70;1.45;;;;;;;;;;5066832;28;20412;-95
2023/03/31 14:32:30;;;;;;;3.70;0.95;;;;;;;;;;5069007;28;20150;-94
2023/03/31 14:35:04;;;;;;;7.40;1.20;;;;;;;;;;5084911;28;20052;-93
2023/03/31 14:37:32;;;;;;;4.35;0.90;;;;;;;;;;5070470;28;20055;-96
2023/03/31 14:40:02;;;;;;;4.65;1.23;;;;;;;;;;5086610;28;20058;-91
2023/03/31 14:42:38;;;;;;;2.45;0.90;;;;;;;;;;5069416;28;20087;-94
2023/03/31 14:45:15;;;;;;;2.42;1.13;;;;;;;;;;5079560;28;20056;-93
2023/03/31 14:47:53;;;;;;;5.32;1.08;;;;;;;;;;5070344;28;20044;-93
2023/03/31 14:50:20;;;;;;;8.30;1.17;;;;;;;;;;5075369;28;20048;-94
2023/03/31 14:52:48;;;;;;;1.70;0.80;;;;;;;;;;5070504;28;20049;-95
2023/03/31 14:55:16;;;;;;;1.50;0.60;;;;;;;;;;5089922;28;20124;-91
2023/03/31 14:57:45;;;;;;;4.72;1.02;;;;;;;;;;5073936;28;20139;-95
2023/03/31 15:00:20;;;;;;;2.20;0.82;;;;;;;;;;5077470;28;20026;-93
2023/03/31 15:02:48;;;;;;;2.75;1.13;;;;;;;;;;5093868;28;20110;-96
2023/03/31 15:07:50;;;;;;;3.03;1.50;;;;;;;;;;4986915;28;20078;-95